createdAt,value
2018-05-14T00:00:55.938Z,14.12
2018-05-14T00:03:23.514Z,14.22
2018-05-14T00:05:51.056Z,14.27
2018-05-14T00:08:18.618Z,14.17
2018-05-14T00:10:46.142Z,14.23
2018-05-14T00:13:13.694Z,14.14
2018-05-14T00:15:41.246Z,14.21
2018-05-14T00:18:08.853Z,14.18
2018-05-14T00:20:36.414Z,14.18
2018-05-14T00:23:03.972Z,14.14
2018-05-14T00:25:31.530Z,14.04
2018-05-14T00:27:59.082Z,13.99
2018-05-14T00:30:26.638Z,14.07
2018-05-14T00:32:54.162Z,14.02
2018-05-14T00:35:21.714Z,14.07
2018-05-14T00:37:49.331Z,14.09
2018-05-14T00:40:16.894Z,13.96
2018-05-14T00:42:44.452Z,13.97
2018-05-14T00:45:12.250Z,13.96
2018-05-14T00:47:39.776Z,14.08
2018-05-14T00:50:07.437Z,14.07
2018-05-14T00:52:35.797Z,14.03
2018-05-14T00:55:15.048Z,13.99
2018-05-14T00:57:42.582Z,13.90
2018-05-14T01:00:10.165Z,13.92
2018-05-14T01:02:37.713Z,13.94
2018-05-14T01:05:05.798Z,13.96
2018-05-14T01:07:33.368Z,14.01
2018-05-14T01:10:00.893Z,13.87
2018-05-14T01:12:28.493Z,13.81
2018-05-14T01:14:56.046Z,13.86
2018-05-14T01:17:23.630Z,13.82
2018-05-14T01:19:51.232Z,13.89
2018-05-14T01:22:18.817Z,13.97
2018-05-14T01:24:52.112Z,13.84
2018-05-14T01:27:19.663Z,13.88
2018-05-14T01:29:47.189Z,13.81
2018-05-14T01:32:14.763Z,13.82
2018-05-14T01:34:42.361Z,13.85
2018-05-14T01:37:09.898Z,13.84
2018-05-14T01:39:37.572Z,13.76
2018-05-14T01:42:05.919Z,13.79
2018-05-14T01:44:33.495Z,13.90
2018-05-14T01:47:01.027Z,13.89
2018-05-14T01:49:28.585Z,13.89
2018-05-14T01:51:56.131Z,13.92
2018-05-14T01:54:23.686Z,13.92
2018-05-14T01:56:51.239Z,13.86
2018-05-14T01:59:18.867Z,13.93
2018-05-14T02:01:46.419Z,13.97
2018-05-14T02:04:13.993Z,13.89
2018-05-14T02:06:41.524Z,13.81
2018-05-14T02:09:09.078Z,13.86
2018-05-14T02:11:36.602Z,13.83
2018-05-14T02:14:04.150Z,13.86
2018-05-14T02:16:31.732Z,13.83
2018-05-14T02:18:59.281Z,13.88
2018-05-14T02:21:26.840Z,13.81
2018-05-14T02:23:54.382Z,13.73
2018-05-14T02:26:21.937Z,13.64
2018-05-14T02:28:49.465Z,13.66
2018-05-14T02:31:17.045Z,13.76
2018-05-14T02:33:44.597Z,13.79
2018-05-14T02:36:12.171Z,13.67
2018-05-14T02:38:39.725Z,13.79
2018-05-14T02:41:07.305Z,13.74
2018-05-14T02:43:34.939Z,13.80
2018-05-14T02:46:02.505Z,13.84
2018-05-14T02:48:30.031Z,13.67
2018-05-14T02:50:57.617Z,13.62
2018-05-14T02:53:25.325Z,13.60
2018-05-14T02:55:52.838Z,13.55
2018-05-14T02:58:20.420Z,13.42
2018-05-14T03:00:47.957Z,13.52
2018-05-14T03:03:15.619Z,13.51
2018-05-14T03:05:43.150Z,13.56
2018-05-14T03:08:10.702Z,13.52
2018-05-14T03:10:38.254Z,13.52
2018-05-14T03:13:06.382Z,13.56
2018-05-14T03:15:34.134Z,13.54
2018-05-14T03:18:01.911Z,13.48
2018-05-14T03:20:29.477Z,13.48
2018-05-14T03:22:57.046Z,13.51
2018-05-14T03:25:24.577Z,13.41
2018-05-14T03:27:52.239Z,13.44
2018-05-14T03:30:19.784Z,13.44
2018-05-14T03:32:47.350Z,13.57
2018-05-14T03:35:14.879Z,13.53
2018-05-14T03:37:42.478Z,13.49
2018-05-14T03:40:10.007Z,13.53
2018-05-14T03:42:37.597Z,13.58
2018-05-14T03:45:05.157Z,13.54
2018-05-14T03:47:32.686Z,13.50
2018-05-14T03:50:00.375Z,13.54
2018-05-14T03:52:27.940Z,13.65
2018-05-14T03:54:55.491Z,13.63
2018-05-14T03:57:23.040Z,13.57
2018-05-14T04:00:02.501Z,13.64
2018-05-14T04:02:41.978Z,13.65
2018-05-14T04:05:17.479Z,13.68
2018-05-14T04:07:45.002Z,13.69
2018-05-14T04:10:12.607Z,13.78
2018-05-14T04:12:43.920Z,13.72
2018-05-14T04:15:11.511Z,13.70
2018-05-14T04:17:39.190Z,13.57
2018-05-14T04:20:06.764Z,13.65
2018-05-14T04:22:34.316Z,13.71
2018-05-14T04:25:01.886Z,13.56
2018-05-14T04:27:29.409Z,13.47
2018-05-14T04:29:56.973Z,13.58
2018-05-14T04:32:24.631Z,13.66
2018-05-14T04:34:52.377Z,13.72
2018-05-14T04:37:19.950Z,13.59
2018-05-14T04:39:48.213Z,13.59
2018-05-14T04:42:15.788Z,13.68
2018-05-14T04:44:43.481Z,13.64
2018-05-14T04:47:11.096Z,13.74
2018-05-14T04:49:39.657Z,13.76
2018-05-14T04:52:07.289Z,13.66
2018-05-14T04:54:34.846Z,13.75
2018-05-14T04:57:02.418Z,13.81
2018-05-14T04:59:29.953Z,13.67
2018-05-14T05:01:57.606Z,13.76
2018-05-14T05:04:25.163Z,13.72
2018-05-14T05:06:52.711Z,13.77
2018-05-14T05:09:20.380Z,13.66
2018-05-14T05:11:47.912Z,13.74
2018-05-14T05:14:15.563Z,13.73
2018-05-14T05:16:43.267Z,13.80
2018-05-14T05:19:12.079Z,13.82
2018-05-14T05:21:39.770Z,13.75
2018-05-14T05:24:07.349Z,13.96
2018-05-14T05:26:35.244Z,13.87
2018-05-14T05:29:02.805Z,13.92
2018-05-14T05:31:30.358Z,13.95
2018-05-14T05:33:58.032Z,13.91
2018-05-14T05:36:25.584Z,13.96
2018-05-14T05:38:53.242Z,14.04
2018-05-14T05:41:20.765Z,14.03
2018-05-14T05:43:49.386Z,14.01
2018-05-14T05:46:16.991Z,14.19
2018-05-14T05:48:44.521Z,14.08
2018-05-14T05:51:12.167Z,14.08
2018-05-14T05:53:39.899Z,14.09
2018-05-14T05:56:07.454Z,14.25
2018-05-14T05:58:35.017Z,14.42
2018-05-14T06:01:02.584Z,14.32
2018-05-14T06:03:30.109Z,14.37
2018-05-14T06:05:57.729Z,14.47
2018-05-14T06:08:25.287Z,14.49
2018-05-14T06:10:52.959Z,14.45
2018-05-14T06:13:20.522Z,14.54
2018-05-14T06:15:48.171Z,14.63
2018-05-14T06:18:17.185Z,14.56
2018-05-14T06:20:44.723Z,14.76
2018-05-14T06:23:12.307Z,14.69
2018-05-14T06:25:39.834Z,14.87
2018-05-14T06:28:07.406Z,14.95
2018-05-14T06:30:34.932Z,15.06
2018-05-14T06:33:02.529Z,15.21
2018-05-14T06:35:30.093Z,15.20
2018-05-14T06:37:57.640Z,15.28
2018-05-14T06:40:25.190Z,15.41
2018-05-14T06:42:52.758Z,15.40
2018-05-14T06:45:20.294Z,15.30
2018-05-14T06:47:47.848Z,15.46
2018-05-14T06:50:15.498Z,15.29
2018-05-14T06:52:43.052Z,15.47
2018-05-14T06:55:10.647Z,15.63
2018-05-14T06:57:38.206Z,15.75
2018-05-14T07:00:05.786Z,15.76
2018-05-14T07:02:33.338Z,15.89
2018-05-14T07:05:00.889Z,15.78
2018-05-14T07:07:28.417Z,15.93
2018-05-14T07:09:55.976Z,15.70
2018-05-14T07:12:23.499Z,16.02
2018-05-14T07:14:51.049Z,15.95
2018-05-14T07:17:18.697Z,16.04
2018-05-14T07:19:46.278Z,16.11
2018-05-14T07:22:13.827Z,15.93
2018-05-14T07:24:41.552Z,16.21
2018-05-14T07:27:09.034Z,16.40
2018-05-14T07:29:36.591Z,16.24
2018-05-14T07:32:04.139Z,16.25
2018-05-14T07:34:31.817Z,16.24
2018-05-14T07:36:59.346Z,16.22
2018-05-14T07:39:26.940Z,16.16
2018-05-14T07:41:54.496Z,16.11
2018-05-14T07:44:22.058Z,16.27
2018-05-14T07:46:49.625Z,16.21
2018-05-14T07:49:17.169Z,16.17
2018-05-14T07:51:44.736Z,16.43
2018-05-14T07:54:12.302Z,16.30
2018-05-14T07:56:39.965Z,16.87
2018-05-14T07:59:07.581Z,16.64
2018-05-14T08:01:35.177Z,16.90
2018-05-14T08:04:02.735Z,16.91
2018-05-14T08:06:30.319Z,16.80
2018-05-14T08:08:57.923Z,16.77
2018-05-14T08:11:25.474Z,16.70
2018-05-14T08:13:53.078Z,16.72
2018-05-14T08:16:20.629Z,16.92
2018-05-14T08:18:49.230Z,17.21
2018-05-14T08:21:16.814Z,17.41
2018-05-14T08:23:44.362Z,17.68
2018-05-14T08:26:11.935Z,17.82
2018-05-14T08:28:39.559Z,18.09
2018-05-14T08:31:07.091Z,18.27
2018-05-14T08:33:34.697Z,18.44
2018-05-14T08:36:02.217Z,18.75
2018-05-14T08:38:29.773Z,19.00
2018-05-14T08:40:57.305Z,19.09
2018-05-14T08:43:24.881Z,18.86
2018-05-14T08:45:52.430Z,18.78
2018-05-14T08:48:20.010Z,18.49
2018-05-14T08:50:47.604Z,18.83
2018-05-14T08:53:15.163Z,18.94
2018-05-14T08:55:42.717Z,18.69
2018-05-14T08:58:10.342Z,18.68
2018-05-14T09:00:37.997Z,18.88
2018-05-14T09:03:05.493Z,18.84
2018-05-14T09:05:33.043Z,18.98
2018-05-14T09:08:00.576Z,19.00
2018-05-14T09:10:28.244Z,18.71
2018-05-14T09:12:55.835Z,18.96
2018-05-14T09:15:23.497Z,18.99
2018-05-14T09:17:51.031Z,19.07
2018-05-14T09:20:18.610Z,18.68
2018-05-14T09:22:46.137Z,18.41
2018-05-14T09:25:13.713Z,18.70
2018-05-14T09:27:41.242Z,18.86
2018-05-14T09:30:08.792Z,18.75
2018-05-14T09:32:36.322Z,19.28
2018-05-14T09:35:03.927Z,19.17
2018-05-14T09:37:31.544Z,19.46
2018-05-14T09:39:59.079Z,19.29
2018-05-14T09:42:26.756Z,19.39
2018-05-14T09:44:54.416Z,19.62
2018-05-14T09:47:21.985Z,19.70
2018-05-14T09:49:49.534Z,19.68
2018-05-14T09:52:17.095Z,19.44
2018-05-14T09:54:44.762Z,19.44
2018-05-14T09:57:12.823Z,19.23
2018-05-14T09:59:41.014Z,19.53
2018-05-14T10:02:08.716Z,19.00
2018-05-14T10:04:36.591Z,19.19
2018-05-14T10:07:04.399Z,19.06
2018-05-14T10:09:32.373Z,19.16
2018-05-14T10:12:00.225Z,19.29
2018-05-14T10:14:27.761Z,19.42
2018-05-14T10:16:55.351Z,19.42
2018-05-14T10:19:23.638Z,19.44
2018-05-14T10:21:51.598Z,19.26
2018-05-14T10:24:19.170Z,19.74
2018-05-14T10:26:46.850Z,19.41
2018-05-14T10:29:15.300Z,19.55
2018-05-14T10:31:42.973Z,19.64
2018-05-14T10:34:11.448Z,19.59
2018-05-14T10:36:39.274Z,19.62
2018-05-14T10:39:06.855Z,19.80
2018-05-14T10:41:35.469Z,20.11
2018-05-14T10:44:03.524Z,20.23
2018-05-14T10:46:31.613Z,20.43
2018-05-14T10:48:59.368Z,20.35
2018-05-14T10:51:27.315Z,19.97
2018-05-14T10:53:57.490Z,20.09
2018-05-14T10:56:25.173Z,19.94
2018-05-14T10:58:52.768Z,20.08
2018-05-14T11:01:20.331Z,20.48
2018-05-14T11:03:47.877Z,20.54
2018-05-14T11:06:15.528Z,20.66
2018-05-14T11:08:43.057Z,20.92
2018-05-14T11:11:10.681Z,20.94
2018-05-14T11:13:38.336Z,21.33
2018-05-14T11:16:05.995Z,21.52
2018-05-14T11:18:33.559Z,21.71
2018-05-14T11:21:01.196Z,21.48
2018-05-14T11:23:28.721Z,21.16
2018-05-14T11:25:56.266Z,20.88
2018-05-14T11:28:23.799Z,20.48
2018-05-14T11:30:51.659Z,20.82
2018-05-14T11:33:19.323Z,20.54
2018-05-14T11:35:46.881Z,20.73
2018-05-14T11:38:16.307Z,20.94
2018-05-14T11:40:43.962Z,20.48
2018-05-14T11:43:11.612Z,20.51
2018-05-14T11:45:39.149Z,20.59
2018-05-14T11:48:06.719Z,20.65
2018-05-14T11:50:34.245Z,20.16
2018-05-14T11:53:01.822Z,20.32
2018-05-14T11:55:29.405Z,20.19
2018-05-14T11:57:57.078Z,20.19
2018-05-14T12:00:24.831Z,20.07
2018-05-14T12:02:52.591Z,20.05
2018-05-14T12:05:20.052Z,20.06
2018-05-14T12:07:47.684Z,19.75
2018-05-14T12:10:15.242Z,19.76
2018-05-14T12:12:42.784Z,19.67
2018-05-14T12:15:10.342Z,19.87
2018-05-14T12:17:37.875Z,19.84
2018-05-14T12:20:05.512Z,20.03
2018-05-14T12:22:33.054Z,20.04
2018-05-14T12:25:00.601Z,19.87
2018-05-14T12:27:28.133Z,20.09
2018-05-14T12:29:55.704Z,19.81
2018-05-14T12:32:25.362Z,19.66
2018-05-14T12:34:52.985Z,19.55
2018-05-14T12:37:20.538Z,19.83
2018-05-14T12:39:48.166Z,19.73
2018-05-14T12:42:17.132Z,19.68
2018-05-14T12:44:44.801Z,19.66
2018-05-14T12:47:14.289Z,19.33
2018-05-14T12:49:41.875Z,19.77
2018-05-14T12:52:09.425Z,20.13
2018-05-14T12:57:09.092Z,20.03
2018-05-14T12:59:37.375Z,19.91
2018-05-14T13:02:05.333Z,19.64
2018-05-14T13:04:35.780Z,19.28
2018-05-14T13:07:03.562Z,19.42
2018-05-14T13:09:31.093Z,19.28
2018-05-14T13:12:00.257Z,19.26
2018-05-14T13:14:27.899Z,19.19
2018-05-14T13:16:55.477Z,19.20
2018-05-14T13:19:22.998Z,19.01
2018-05-14T13:21:50.597Z,19.06
2018-05-14T13:24:30.749Z,19.13
2018-05-14T13:26:58.633Z,19.26
2018-05-14T13:29:26.158Z,19.49
2018-05-14T13:31:53.738Z,19.48
2018-05-14T13:34:22.207Z,19.62
2018-05-14T13:36:52.725Z,19.19
2018-05-14T13:39:21.721Z,19.24
2018-05-14T13:41:49.800Z,19.37
2018-05-14T13:44:17.379Z,19.31
2018-05-14T13:46:45.722Z,19.29
2018-05-14T13:49:14.093Z,19.31
2018-05-14T13:51:41.631Z,19.17
2018-05-14T13:54:09.557Z,19.02
2018-05-14T13:56:37.549Z,19.08
2018-05-14T13:59:05.136Z,19.08
2018-05-14T14:01:33.619Z,18.85
2018-05-14T14:04:01.412Z,18.76
2018-05-14T14:06:29.127Z,18.73
2018-05-14T14:08:57.410Z,18.87
2018-05-14T14:11:25.602Z,19.11
2018-05-14T14:13:53.300Z,18.76
2018-05-14T14:16:21.052Z,18.57
2018-05-14T14:18:49.328Z,18.62
2018-05-14T14:21:17.000Z,18.70
2018-05-14T14:23:44.736Z,18.72
2018-05-14T14:26:12.159Z,18.49
2018-05-14T14:28:39.710Z,18.57
2018-05-14T14:31:07.331Z,18.41
2018-05-14T14:33:34.936Z,18.22
2018-05-14T14:36:02.786Z,18.26
2018-05-14T14:38:30.395Z,18.09
2018-05-14T14:40:57.974Z,18.01
2018-05-14T14:43:25.529Z,17.87
2018-05-14T14:45:53.098Z,17.98
2018-05-14T14:48:20.679Z,18.00
2018-05-14T14:50:48.325Z,18.02
2018-05-14T14:53:15.985Z,18.12
2018-05-14T14:55:44.256Z,18.23
2018-05-14T14:58:11.942Z,18.39
2018-05-14T15:00:39.490Z,18.60
2018-05-14T15:03:07.079Z,18.99
2018-05-14T15:05:35.397Z,18.73
2018-05-14T15:08:03.560Z,18.82
2018-05-14T15:10:31.253Z,18.68
2018-05-14T15:13:00.053Z,18.61
2018-05-14T15:15:27.621Z,18.37
2018-05-14T15:17:55.208Z,18.34
2018-05-14T15:20:22.915Z,18.52
2018-05-14T15:22:50.591Z,18.77
2018-05-14T15:25:18.363Z,18.75
2018-05-14T15:27:45.913Z,18.83
2018-05-14T15:30:13.494Z,18.76
2018-05-14T15:32:41.021Z,18.90
2018-05-14T15:35:08.691Z,19.24
2018-05-14T15:37:36.249Z,19.45
2018-05-14T15:40:03.857Z,19.49
2018-05-14T15:42:31.483Z,19.49
2018-05-14T15:44:59.134Z,19.71
2018-05-14T15:47:26.657Z,19.44
2018-05-14T15:49:54.229Z,19.50
2018-05-14T15:52:21.811Z,19.25
2018-05-14T15:54:49.367Z,19.38
2018-05-14T15:57:16.894Z,19.34
2018-05-14T15:59:44.496Z,19.04
2018-05-14T16:02:12.022Z,19.09
2018-05-14T16:04:39.608Z,19.11
2018-05-14T16:07:10.170Z,19.04
2018-05-14T16:09:37.951Z,19.09
2018-05-14T16:12:05.553Z,19.04
2018-05-14T16:14:33.123Z,18.87
2018-05-14T16:19:37.058Z,19.20
2018-05-14T16:22:04.684Z,19.46
2018-05-14T16:24:32.214Z,19.83
2018-05-14T16:26:59.832Z,19.86
2018-05-14T16:29:27.369Z,19.87
2018-05-14T16:31:54.925Z,19.72
2018-05-14T16:34:23.226Z,19.58
2018-05-14T16:36:50.785Z,19.61
2018-05-14T16:39:18.329Z,19.39
2018-05-14T16:41:45.896Z,19.35
2018-05-14T16:44:13.435Z,19.24
2018-05-14T16:46:42.431Z,19.11
2018-05-14T16:49:09.962Z,19.04
2018-05-14T16:51:37.491Z,18.99
2018-05-14T16:54:05.071Z,19.04
2018-05-14T16:56:32.601Z,18.73
2018-05-14T16:59:00.148Z,18.38
2018-05-14T17:01:27.702Z,-146.44
2018-05-14T17:03:56.599Z,-146.44
2018-05-14T17:06:24.170Z,-146.44
2018-05-14T17:08:51.825Z,-146.44
2018-05-14T17:11:19.410Z,-146.44
2018-05-14T17:13:47.027Z,-146.44
2018-05-14T17:16:14.613Z,-146.44
2018-05-14T17:18:42.194Z,-146.44
2018-05-14T17:21:09.826Z,-146.44
2018-05-14T17:23:37.489Z,-146.44
2018-05-14T17:26:05.039Z,-146.44
2018-05-14T17:28:32.655Z,-146.44
2018-05-14T17:31:00.211Z,-146.44
2018-05-14T17:33:27.759Z,-146.44
2018-05-14T17:35:55.802Z,-146.44
2018-05-14T17:38:23.463Z,-146.44
2018-05-14T17:40:51.079Z,-146.44
2018-05-14T17:43:18.642Z,-146.44
2018-05-14T17:45:46.470Z,-146.44
2018-05-14T17:48:14.249Z,-146.44
2018-05-14T17:50:41.846Z,-146.44
2018-05-14T17:53:11.617Z,-146.44
2018-05-14T17:55:39.650Z,-146.44
2018-05-14T17:58:07.201Z,-146.44
2018-05-14T18:00:34.875Z,-146.44
2018-05-14T18:03:02.434Z,-146.44
2018-05-14T18:05:41.661Z,-146.44
2018-05-14T18:08:09.255Z,-146.44
2018-05-14T18:10:39.518Z,-146.44
2018-05-14T18:13:07.042Z,-146.44
2018-05-14T18:15:34.672Z,-146.44
2018-05-14T18:18:02.381Z,-146.44
2018-05-14T18:20:29.995Z,-146.44
2018-05-14T18:22:57.602Z,-146.44
2018-05-14T18:25:30.580Z,-146.44
2018-05-14T18:28:11.928Z,-146.44
2018-05-14T18:30:39.526Z,-146.44
2018-05-14T18:33:11.151Z,-146.44
2018-05-14T18:35:44.640Z,-146.44
2018-05-14T18:38:14.085Z,-146.44
2018-05-14T18:40:41.655Z,-146.44
2018-05-14T18:43:09.364Z,-146.44
2018-05-14T18:45:36.936Z,-146.44
2018-05-14T18:48:04.595Z,-146.44
2018-05-14T18:50:32.152Z,-146.44
2018-05-14T18:52:59.728Z,-146.44
2018-05-14T18:55:27.295Z,-146.44
2018-05-14T18:57:55.182Z,-146.44
2018-05-14T19:00:22.738Z,-146.44
2018-05-14T19:02:52.929Z,-146.44
2018-05-14T19:05:20.617Z,-146.44
2018-05-14T19:07:48.258Z,-146.44
2018-05-14T19:10:21.284Z,-146.44
2018-05-14T19:12:50.045Z,-146.44
2018-05-14T19:15:23.492Z,-146.44
2018-05-14T19:17:57.016Z,-146.44
2018-05-14T19:20:24.674Z,-146.44
2018-05-14T19:22:57.842Z,-146.44
2018-05-14T19:25:25.517Z,-146.44
2018-05-14T19:27:59.398Z,-146.44
2018-05-14T19:30:27.014Z,-146.44
2018-05-14T19:32:54.590Z,-146.44
2018-05-14T19:35:27.867Z,-146.44
2018-05-14T19:37:55.441Z,-146.44
2018-05-14T19:40:28.759Z,-146.44
2018-05-14T19:42:56.310Z,-146.44
2018-05-14T19:45:24.749Z,-146.44
2018-05-14T19:47:52.650Z,-146.44
2018-05-14T19:50:20.407Z,-146.44
2018-05-14T19:52:47.917Z,-146.44
2018-05-14T19:55:17.249Z,-146.44
2018-05-14T19:57:44.838Z,-146.44
2018-05-14T20:00:12.463Z,-146.44
2018-05-14T20:02:40.321Z,-146.44
2018-05-14T20:05:07.916Z,-146.44
2018-05-14T20:07:39.011Z,-146.44
2018-05-14T20:10:07.006Z,-146.44
2018-05-14T20:12:34.814Z,-146.44
2018-05-14T20:15:02.424Z,-146.44
2018-05-14T20:17:30.080Z,-146.44
2018-05-14T20:19:57.629Z,-146.44
2018-05-14T20:22:25.500Z,-146.44
2018-05-14T20:24:53.325Z,-146.44
2018-05-14T20:27:21.439Z,-146.44
2018-05-14T20:29:49.153Z,-146.44
2018-05-14T20:32:17.122Z,-146.44
2018-05-14T20:34:44.690Z,-146.44
2018-05-14T20:37:15.050Z,-146.44
2018-05-14T20:39:44.595Z,-146.44
2018-05-14T20:42:13.940Z,-146.44
2018-05-14T20:44:42.656Z,-146.44
2018-05-14T20:47:10.702Z,-146.44
2018-05-14T20:49:39.973Z,-146.44
2018-05-14T20:52:08.718Z,-146.44
2018-05-14T20:54:37.803Z,-146.44
2018-05-14T20:57:06.320Z,-146.44
2018-05-14T20:59:34.361Z,-146.44
2018-05-14T21:02:03.891Z,-146.44
2018-05-14T21:04:31.793Z,-146.44
2018-05-14T21:07:01.193Z,-146.44
2018-05-14T21:09:30.821Z,-146.44
2018-05-14T21:12:00.157Z,-146.44
2018-05-14T21:14:27.819Z,-146.44
2018-05-14T21:16:56.447Z,-146.44
2018-05-14T21:19:24.481Z,-146.44
2018-05-14T21:21:53.661Z,-146.44
2018-05-14T21:24:22.402Z,-146.44
2018-05-14T21:26:50.292Z,-146.44
2018-05-14T21:29:17.866Z,-146.44
2018-05-14T21:31:45.440Z,-146.44
2018-05-14T21:34:13.109Z,-146.44
2018-05-14T21:36:40.651Z,-146.44
2018-05-14T21:39:10.012Z,-146.44
2018-05-14T21:41:38.796Z,-146.44
2018-05-14T21:44:07.714Z,-146.44
2018-05-14T21:46:35.525Z,-146.44
2018-05-14T21:49:03.688Z,-146.44
2018-05-14T21:51:32.354Z,-146.44
2018-05-14T21:54:00.854Z,-146.44
2018-05-14T21:56:31.114Z,-146.44
2018-05-14T21:59:01.459Z,-146.44
2018-05-14T22:01:30.000Z,-146.44
2018-05-14T22:03:59.969Z,-146.44
2018-05-14T22:06:27.928Z,-146.44
2018-05-14T22:08:56.825Z,-146.44
2018-05-14T22:11:24.525Z,-146.44
2018-05-14T22:13:52.098Z,-146.44
2018-05-14T22:16:19.675Z,-146.44
2018-05-14T22:18:47.262Z,-146.44
2018-05-14T22:21:14.820Z,-146.44
2018-05-14T22:23:42.515Z,-146.44
2018-05-14T22:26:10.189Z,-146.44
2018-05-14T22:28:37.801Z,-146.44
2018-05-14T22:31:05.347Z,-146.44
2018-05-14T22:33:32.958Z,-146.44
2018-05-14T22:36:00.533Z,-146.44
2018-05-14T22:38:28.141Z,-146.44
2018-05-14T22:40:55.748Z,-146.44
2018-05-14T22:43:23.358Z,-146.44
2018-05-14T22:45:50.938Z,-146.44
2018-05-14T22:48:18.623Z,-146.44
2018-05-14T22:50:46.389Z,-146.44
2018-05-14T22:53:14.028Z,-146.44
2018-05-14T22:55:41.622Z,-146.44
2018-05-14T22:58:09.274Z,-146.44
2018-05-14T23:00:36.874Z,-146.44
2018-05-14T23:03:04.492Z,-146.44
2018-05-14T23:05:32.078Z,-146.44
2018-05-14T23:07:59.646Z,-146.44
2018-05-14T23:10:27.284Z,-146.44
2018-05-14T23:12:54.834Z,-146.44
2018-05-14T23:15:22.415Z,-146.44
2018-05-14T23:17:50.054Z,-146.44
2018-05-14T23:20:17.683Z,-146.44
2018-05-14T23:22:45.245Z,-146.44
2018-05-14T23:25:12.810Z,-146.44
2018-05-14T23:27:40.499Z,-146.44
2018-05-14T23:30:08.048Z,-146.44
2018-05-14T23:32:35.644Z,-146.44
2018-05-14T23:35:03.245Z,-146.44
2018-05-14T23:37:30.835Z,-146.44
2018-05-14T23:39:58.406Z,-146.44
2018-05-14T23:42:26.009Z,-146.44
2018-05-14T23:44:53.619Z,-146.44
2018-05-14T23:47:21.194Z,-146.44
2018-05-14T23:49:48.744Z,-146.44
2018-05-14T23:52:16.360Z,-146.44
2018-05-14T23:54:43.917Z,-146.44
2018-05-14T23:57:11.518Z,-146.44
2018-05-14T23:59:39.079Z,-146.44
